sensor_id;sensor_type;location;lat;lon;timestamp;temperature;humidity
16158;DHT22;8184;60.256;18.694;2023-02-28T00:01:42;2.60;99.90
16158;DHT22;8184;60.256;18.694;2023-02-28T00:04:12;2.80;99.90
16158;DHT22;8184;60.256;18.694;2023-02-28T00:06:40;2.80;99.90
16158;DHT22;8184;60.256;18.694;2023-02-28T00:09:09;2.90;99.90
16158;DHT22;8184;60.256;18.694;2023-02-28T00:11:37;2.80;99.90
16158;DHT22;8184;60.256;18.694;2023-02-28T00:14:05;2.70;99.90
16158;DHT22;8184;60.256;18.694;2023-02-28T00:16:34;2.60;99.90
16158;DHT22;8184;60.256;18.694;2023-02-28T00:19:02;2.60;99.90
16158;DHT22;8184;60.256;18.694;2023-02-28T00:21:31;2.50;99.90
16158;DHT22;8184;60.256;18.694;2023-02-28T00:24:00;2.50;99.90
16158;DHT22;8184;60.256;18.694;2023-02-28T00:26:28;2.50;99.90
16158;DHT22;8184;60.256;18.694;2023-02-28T00:28:56;2.60;99.90
16158;DHT22;8184;60.256;18.694;2023-02-28T00:31:24;2.40;99.90
16158;DHT22;8184;60.256;18.694;2023-02-28T00:33:53;2.30;99.90
16158;DHT22;8184;60.256;18.694;2023-02-28T00:36:21;2.20;99.90
16158;DHT22;8184;60.256;18.694;2023-02-28T00:38:51;2.20;99.90
16158;DHT22;8184;60.256;18.694;2023-02-28T00:41:20;2.20;99.90
16158;DHT22;8184;60.256;18.694;2023-02-28T00:43:48;2.20;99.90
16158;DHT22;8184;60.256;18.694;2023-02-28T00:46:16;2.20;99.90
16158;DHT22;8184;60.256;18.694;2023-02-28T00:48:45;2.20;99.90
16158;DHT22;8184;60.256;18.694;2023-02-28T00:51:13;2.30;99.90
16158;DHT22;8184;60.256;18.694;2023-02-28T00:53:41;2.40;99.90
16158;DHT22;8184;60.256;18.694;2023-02-28T00:56:11;2.40;99.90
16158;DHT22;8184;60.256;18.694;2023-02-28T00:58:39;2.30;99.90
16158;DHT22;8184;60.256;18.694;2023-02-28T01:01:07;2.30;99.90
16158;DHT22;8184;60.256;18.694;2023-02-28T01:03:39;2.30;99.90
16158;DHT22;8184;60.256;18.694;2023-02-28T01:06:07;2.10;99.90
16158;DHT22;8184;60.256;18.694;2023-02-28T01:08:35;2.10;99.90
16158;DHT22;8184;60.256;18.694;2023-02-28T01:11:07;2.20;99.90
16158;DHT22;8184;60.256;18.694;2023-02-28T01:13:38;2.10;99.90
16158;DHT22;8184;60.256;18.694;2023-02-28T01:16:06;2.00;99.90
16158;DHT22;8184;60.256;18.694;2023-02-28T01:18:35;1.90;99.90
16158;DHT22;8184;60.256;18.694;2023-02-28T01:21:04;2.00;99.90
16158;DHT22;8184;60.256;18.694;2023-02-28T01:23:32;2.10;99.90
16158;DHT22;8184;60.256;18.694;2023-02-28T01:26:03;2.10;99.90
16158;DHT22;8184;60.256;18.694;2023-02-28T01:28:31;2.20;99.90
16158;DHT22;8184;60.256;18.694;2023-02-28T01:31:01;2.10;99.90
16158;DHT22;8184;60.256;18.694;2023-02-28T01:33:29;2.10;99.90
16158;DHT22;8184;60.256;18.694;2023-02-28T01:36:00;2.10;99.90
16158;DHT22;8184;60.256;18.694;2023-02-28T01:38:29;2.20;99.90
16158;DHT22;8184;60.256;18.694;2023-02-28T01:40:57;2.10;99.90
16158;DHT22;8184;60.256;18.694;2023-02-28T01:43:26;2.10;99.90
16158;DHT22;8184;60.256;18.694;2023-02-28T01:45:55;2.10;99.90
16158;DHT22;8184;60.256;18.694;2023-02-28T01:48:25;2.00;99.90
16158;DHT22;8184;60.256;18.694;2023-02-28T01:50:54;2.00;99.90
16158;DHT22;8184;60.256;18.694;2023-02-28T01:53:24;1.90;99.90
16158;DHT22;8184;60.256;18.694;2023-02-28T01:55:54;1.90;99.90
16158;DHT22;8184;60.256;18.694;2023-02-28T01:58:23;2.10;99.90
16158;DHT22;8184;60.256;18.694;2023-02-28T02:00:51;2.30;99.90
16158;DHT22;8184;60.256;18.694;2023-02-28T02:03:19;2.30;99.90
16158;DHT22;8184;60.256;18.694;2023-02-28T02:05:52;2.30;99.90
16158;DHT22;8184;60.256;18.694;2023-02-28T02:08:22;2.20;99.90
16158;DHT22;8184;60.256;18.694;2023-02-28T02:10:54;2.20;99.90
16158;DHT22;8184;60.256;18.694;2023-02-28T02:13:26;2.10;99.90
16158;DHT22;8184;60.256;18.694;2023-02-28T02:16:00;2.10;99.90
16158;DHT22;8184;60.256;18.694;2023-02-28T02:18:31;2.10;99.90
16158;DHT22;8184;60.256;18.694;2023-02-28T02:26:55;2.10;99.90
16158;DHT22;8184;60.256;18.694;2023-02-28T02:32:18;2.00;99.90
16158;DHT22;8184;60.256;18.694;2023-02-28T02:34:53;1.90;99.90
16158;DHT22;8184;60.256;18.694;2023-02-28T02:37:25;1.80;99.90
16158;DHT22;8184;60.256;18.694;2023-02-28T02:40:03;1.80;99.90
16158;DHT22;8184;60.256;18.694;2023-02-28T02:42:37;1.80;99.90
16158;DHT22;8184;60.256;18.694;2023-02-28T02:45:09;1.80;99.90
16158;DHT22;8184;60.256;18.694;2023-02-28T02:47:38;1.80;99.90
16158;DHT22;8184;60.256;18.694;2023-02-28T02:50:11;1.70;99.90
16158;DHT22;8184;60.256;18.694;2023-02-28T02:52:40;1.80;99.90
16158;DHT22;8184;60.256;18.694;2023-02-28T02:55:11;1.80;99.90
16158;DHT22;8184;60.256;18.694;2023-02-28T02:57:42;1.90;99.90
16158;DHT22;8184;60.256;18.694;2023-02-28T03:00:12;1.80;99.90
16158;DHT22;8184;60.256;18.694;2023-02-28T03:02:41;1.80;99.90
16158;DHT22;8184;60.256;18.694;2023-02-28T03:05:14;1.70;99.90
16158;DHT22;8184;60.256;18.694;2023-02-28T03:07:47;1.70;99.90
16158;DHT22;8184;60.256;18.694;2023-02-28T03:13:11;1.70;99.90
16158;DHT22;8184;60.256;18.694;2023-02-28T03:15:42;1.60;99.90
16158;DHT22;8184;60.256;18.694;2023-02-28T03:18:14;1.70;99.90
16158;DHT22;8184;60.256;18.694;2023-02-28T03:20:48;1.70;99.90
16158;DHT22;8184;60.256;18.694;2023-02-28T03:23:19;1.60;99.90
16158;DHT22;8184;60.256;18.694;2023-02-28T03:25:54;1.70;99.90
16158;DHT22;8184;60.256;18.694;2023-02-28T03:28:28;1.60;99.90
16158;DHT22;8184;60.256;18.694;2023-02-28T03:30:59;1.60;99.90
16158;DHT22;8184;60.256;18.694;2023-02-28T03:33:31;1.60;99.90
16158;DHT22;8184;60.256;18.694;2023-02-28T03:36:04;1.60;99.90
16158;DHT22;8184;60.256;18.694;2023-02-28T03:38:35;1.60;99.90
16158;DHT22;8184;60.256;18.694;2023-02-28T03:41:05;1.60;99.90
16158;DHT22;8184;60.256;18.694;2023-02-28T03:43:35;1.60;99.90
16158;DHT22;8184;60.256;18.694;2023-02-28T03:46:07;1.60;99.90
16158;DHT22;8184;60.256;18.694;2023-02-28T03:48:38;1.70;99.90
16158;DHT22;8184;60.256;18.694;2023-02-28T03:51:10;1.60;99.90
16158;DHT22;8184;60.256;18.694;2023-02-28T03:53:41;1.60;99.90
16158;DHT22;8184;60.256;18.694;2023-02-28T03:56:15;1.60;99.90
16158;DHT22;8184;60.256;18.694;2023-02-28T03:58:47;1.60;99.90
16158;DHT22;8184;60.256;18.694;2023-02-28T04:01:18;1.70;99.90
16158;DHT22;8184;60.256;18.694;2023-02-28T04:03:47;1.70;99.90
16158;DHT22;8184;60.256;18.694;2023-02-28T04:06:17;1.60;99.90
16158;DHT22;8184;60.256;18.694;2023-02-28T04:08:46;1.50;99.90
16158;DHT22;8184;60.256;18.694;2023-02-28T04:11:18;1.50;99.90
16158;DHT22;8184;60.256;18.694;2023-02-28T04:13:46;1.50;99.90
16158;DHT22;8184;60.256;18.694;2023-02-28T04:16:15;1.50;99.90
16158;DHT22;8184;60.256;18.694;2023-02-28T04:19:00;1.60;99.90
16158;DHT22;8184;60.256;18.694;2023-02-28T04:21:36;1.50;99.90
16158;DHT22;8184;60.256;18.694;2023-02-28T04:24:06;1.50;99.90
16158;DHT22;8184;60.256;18.694;2023-02-28T04:26:35;1.50;99.90
16158;DHT22;8184;60.256;18.694;2023-02-28T04:29:04;1.60;99.90
16158;DHT22;8184;60.256;18.694;2023-02-28T04:31:32;1.50;99.90
16158;DHT22;8184;60.256;18.694;2023-02-28T04:34:01;1.50;99.90
16158;DHT22;8184;60.256;18.694;2023-02-28T04:36:29;1.70;99.90
16158;DHT22;8184;60.256;18.694;2023-02-28T04:38:59;1.60;99.90
16158;DHT22;8184;60.256;18.694;2023-02-28T04:41:27;1.60;99.90
16158;DHT22;8184;60.256;18.694;2023-02-28T04:43:58;1.40;99.90
16158;DHT22;8184;60.256;18.694;2023-02-28T04:46:27;1.40;99.90
16158;DHT22;8184;60.256;18.694;2023-02-28T04:48:57;1.40;99.90
16158;DHT22;8184;60.256;18.694;2023-02-28T04:51:26;1.40;99.90
16158;DHT22;8184;60.256;18.694;2023-02-28T04:53:54;1.40;99.90
16158;DHT22;8184;60.256;18.694;2023-02-28T04:56:24;1.30;99.90
16158;DHT22;8184;60.256;18.694;2023-02-28T04:58:53;1.30;99.90
16158;DHT22;8184;60.256;18.694;2023-02-28T05:01:22;1.20;99.90
16158;DHT22;8184;60.256;18.694;2023-02-28T05:03:51;1.20;99.90
16158;DHT22;8184;60.256;18.694;2023-02-28T05:06:19;1.40;99.90
16158;DHT22;8184;60.256;18.694;2023-02-28T05:08:48;1.60;99.90
16158;DHT22;8184;60.256;18.694;2023-02-28T05:11:18;1.40;99.90
16158;DHT22;8184;60.256;18.694;2023-02-28T05:13:48;1.30;99.90
16158;DHT22;8184;60.256;18.694;2023-02-28T05:16:17;1.20;99.90
16158;DHT22;8184;60.256;18.694;2023-02-28T05:18:46;1.50;99.90
16158;DHT22;8184;60.256;18.694;2023-02-28T05:21:22;1.10;99.90
16158;DHT22;8184;60.256;18.694;2023-02-28T05:23:52;1.20;99.90
16158;DHT22;8184;60.256;18.694;2023-02-28T05:26:20;1.10;99.90
16158;DHT22;8184;60.256;18.694;2023-02-28T05:28:50;1.20;99.90
16158;DHT22;8184;60.256;18.694;2023-02-28T05:31:18;1.10;99.90
16158;DHT22;8184;60.256;18.694;2023-02-28T05:33:46;1.10;99.90
16158;DHT22;8184;60.256;18.694;2023-02-28T05:36:15;1.00;99.90
16158;DHT22;8184;60.256;18.694;2023-02-28T05:38:45;1.00;99.90
16158;DHT22;8184;60.256;18.694;2023-02-28T05:41:14;1.00;99.90
16158;DHT22;8184;60.256;18.694;2023-02-28T05:43:42;1.00;99.90
16158;DHT22;8184;60.256;18.694;2023-02-28T05:46:12;0.90;99.90
16158;DHT22;8184;60.256;18.694;2023-02-28T05:48:40;0.90;99.90
16158;DHT22;8184;60.256;18.694;2023-02-28T05:51:09;1.00;99.90
16158;DHT22;8184;60.256;18.694;2023-02-28T05:53:37;1.00;99.90
16158;DHT22;8184;60.256;18.694;2023-02-28T05:56:06;1.10;99.90
16158;DHT22;8184;60.256;18.694;2023-02-28T05:58:34;1.10;99.90
16158;DHT22;8184;60.256;18.694;2023-02-28T06:03:47;1.20;99.90
16158;DHT22;8184;60.256;18.694;2023-02-28T06:06:15;1.20;99.90
16158;DHT22;8184;60.256;18.694;2023-02-28T06:08:43;1.20;99.90
16158;DHT22;8184;60.256;18.694;2023-02-28T06:11:12;1.40;99.90
16158;DHT22;8184;60.256;18.694;2023-02-28T06:13:41;1.30;99.90
16158;DHT22;8184;60.256;18.694;2023-02-28T06:16:09;1.50;99.90
16158;DHT22;8184;60.256;18.694;2023-02-28T06:18:38;1.60;99.90
16158;DHT22;8184;60.256;18.694;2023-02-28T06:21:08;1.50;99.90
16158;DHT22;8184;60.256;18.694;2023-02-28T06:23:36;1.60;99.90
16158;DHT22;8184;60.256;18.694;2023-02-28T06:26:04;1.60;99.90
16158;DHT22;8184;60.256;18.694;2023-02-28T06:28:33;1.80;99.90
16158;DHT22;8184;60.256;18.694;2023-02-28T06:31:05;1.70;99.90
16158;DHT22;8184;60.256;18.694;2023-02-28T06:33:37;1.80;99.90
16158;DHT22;8184;60.256;18.694;2023-02-28T06:36:06;2.00;99.90
16158;DHT22;8184;60.256;18.694;2023-02-28T06:38:36;2.20;99.90
16158;DHT22;8184;60.256;18.694;2023-02-28T06:41:06;2.00;99.90
16158;DHT22;8184;60.256;18.694;2023-02-28T06:43:35;2.10;99.90
16158;DHT22;8184;60.256;18.694;2023-02-28T06:46:05;2.00;99.90
16158;DHT22;8184;60.256;18.694;2023-02-28T06:48:34;2.10;99.90
16158;DHT22;8184;60.256;18.694;2023-02-28T06:51:02;2.20;99.90
16158;DHT22;8184;60.256;18.694;2023-02-28T06:53:31;2.50;99.90
16158;DHT22;8184;60.256;18.694;2023-02-28T06:56:04;2.50;99.90
16158;DHT22;8184;60.256;18.694;2023-02-28T06:58:33;2.70;99.90
16158;DHT22;8184;60.256;18.694;2023-02-28T07:01:02;2.70;99.90
16158;DHT22;8184;60.256;18.694;2023-02-28T07:03:30;2.90;99.90
16158;DHT22;8184;60.256;18.694;2023-02-28T07:06:00;2.80;99.90
16158;DHT22;8184;60.256;18.694;2023-02-28T07:08:29;2.90;99.90
16158;DHT22;8184;60.256;18.694;2023-02-28T07:10:58;2.90;99.90
16158;DHT22;8184;60.256;18.694;2023-02-28T07:13:28;3.00;99.90
16158;DHT22;8184;60.256;18.694;2023-02-28T07:15:56;3.10;99.90
16158;DHT22;8184;60.256;18.694;2023-02-28T07:18:25;3.00;99.90
16158;DHT22;8184;60.256;18.694;2023-02-28T07:20:54;3.20;99.90
16158;DHT22;8184;60.256;18.694;2023-02-28T07:23:22;3.00;99.90
16158;DHT22;8184;60.256;18.694;2023-02-28T07:25:50;3.30;99.90
16158;DHT22;8184;60.256;18.694;2023-02-28T07:28:19;3.30;99.90
16158;DHT22;8184;60.256;18.694;2023-02-28T07:30:48;3.30;99.90
16158;DHT22;8184;60.256;18.694;2023-02-28T07:33:17;3.10;99.90
16158;DHT22;8184;60.256;18.694;2023-02-28T07:35:45;3.30;99.90
16158;DHT22;8184;60.256;18.694;2023-02-28T07:38:16;3.40;99.90
16158;DHT22;8184;60.256;18.694;2023-02-28T07:40:45;3.30;99.90
16158;DHT22;8184;60.256;18.694;2023-02-28T07:43:13;3.40;99.90
16158;DHT22;8184;60.256;18.694;2023-02-28T07:45:41;3.50;99.90
16158;DHT22;8184;60.256;18.694;2023-02-28T07:48:11;3.40;99.90
16158;DHT22;8184;60.256;18.694;2023-02-28T07:50:39;3.30;99.90
16158;DHT22;8184;60.256;18.694;2023-02-28T07:53:10;3.50;99.90
16158;DHT22;8184;60.256;18.694;2023-02-28T07:55:38;3.60;99.90
16158;DHT22;8184;60.256;18.694;2023-02-28T07:58:06;3.50;99.90
16158;DHT22;8184;60.256;18.694;2023-02-28T08:00:34;3.90;99.90
16158;DHT22;8184;60.256;18.694;2023-02-28T08:03:03;3.80;99.90
16158;DHT22;8184;60.256;18.694;2023-02-28T08:05:32;3.90;99.90
16158;DHT22;8184;60.256;18.694;2023-02-28T08:08:01;3.80;99.90
16158;DHT22;8184;60.256;18.694;2023-02-28T08:10:29;4.00;99.90
16158;DHT22;8184;60.256;18.694;2023-02-28T08:12:57;4.10;99.90
16158;DHT22;8184;60.256;18.694;2023-02-28T08:15:25;4.10;99.90
16158;DHT22;8184;60.256;18.694;2023-02-28T08:17:54;4.20;99.90
16158;DHT22;8184;60.256;18.694;2023-02-28T08:20:23;4.20;99.90
16158;DHT22;8184;60.256;18.694;2023-02-28T08:22:52;4.20;99.90
16158;DHT22;8184;60.256;18.694;2023-02-28T08:25:21;4.20;99.90
16158;DHT22;8184;60.256;18.694;2023-02-28T08:27:50;4.40;99.90
16158;DHT22;8184;60.256;18.694;2023-02-28T08:30:18;4.20;99.90
16158;DHT22;8184;60.256;18.694;2023-02-28T08:32:47;4.30;99.90
16158;DHT22;8184;60.256;18.694;2023-02-28T08:35:15;4.30;99.90
16158;DHT22;8184;60.256;18.694;2023-02-28T08:37:43;4.40;99.90
16158;DHT22;8184;60.256;18.694;2023-02-28T08:40:13;4.50;99.90
16158;DHT22;8184;60.256;18.694;2023-02-28T08:42:46;4.50;99.90
16158;DHT22;8184;60.256;18.694;2023-02-28T08:45:15;4.50;99.90
16158;DHT22;8184;60.256;18.694;2023-02-28T08:47:43;4.40;99.90
16158;DHT22;8184;60.256;18.694;2023-02-28T08:50:11;4.30;99.90
16158;DHT22;8184;60.256;18.694;2023-02-28T08:52:42;4.40;99.90
16158;DHT22;8184;60.256;18.694;2023-02-28T08:55:10;4.40;99.90
16158;DHT22;8184;60.256;18.694;2023-02-28T08:57:40;4.50;99.90
16158;DHT22;8184;60.256;18.694;2023-02-28T09:00:08;4.50;99.90
16158;DHT22;8184;60.256;18.694;2023-02-28T09:02:40;4.40;99.90
16158;DHT22;8184;60.256;18.694;2023-02-28T09:05:10;4.50;99.90
16158;DHT22;8184;60.256;18.694;2023-02-28T09:07:38;4.60;99.90
16158;DHT22;8184;60.256;18.694;2023-02-28T09:10:07;4.50;99.90
16158;DHT22;8184;60.256;18.694;2023-02-28T09:12:35;4.60;99.90
16158;DHT22;8184;60.256;18.694;2023-02-28T09:15:06;4.50;99.90
16158;DHT22;8184;60.256;18.694;2023-02-28T09:17:34;4.50;99.90
16158;DHT22;8184;60.256;18.694;2023-02-28T09:20:03;4.70;99.90
16158;DHT22;8184;60.256;18.694;2023-02-28T09:22:31;4.80;99.90
16158;DHT22;8184;60.256;18.694;2023-02-28T09:25:00;5.00;99.90
16158;DHT22;8184;60.256;18.694;2023-02-28T09:27:28;5.00;99.90
16158;DHT22;8184;60.256;18.694;2023-02-28T09:29:56;5.10;99.90
16158;DHT22;8184;60.256;18.694;2023-02-28T09:32:26;5.20;99.90
16158;DHT22;8184;60.256;18.694;2023-02-28T09:34:54;5.10;99.90
16158;DHT22;8184;60.256;18.694;2023-02-28T09:37:22;5.00;99.90
16158;DHT22;8184;60.256;18.694;2023-02-28T09:39:50;5.10;99.90
16158;DHT22;8184;60.256;18.694;2023-02-28T09:42:21;5.10;99.90
16158;DHT22;8184;60.256;18.694;2023-02-28T09:44:50;5.00;99.90
16158;DHT22;8184;60.256;18.694;2023-02-28T09:47:25;5.20;99.90
16158;DHT22;8184;60.256;18.694;2023-02-28T09:49:56;5.40;99.90
16158;DHT22;8184;60.256;18.694;2023-02-28T09:52:27;5.40;99.90
16158;DHT22;8184;60.256;18.694;2023-02-28T09:54:58;5.40;99.90
16158;DHT22;8184;60.256;18.694;2023-02-28T09:57:31;5.50;99.90
16158;DHT22;8184;60.256;18.694;2023-02-28T10:00:03;5.70;99.90
16158;DHT22;8184;60.256;18.694;2023-02-28T10:02:41;5.60;99.90
16158;DHT22;8184;60.256;18.694;2023-02-28T10:05:15;5.70;99.90
16158;DHT22;8184;60.256;18.694;2023-02-28T10:07:48;5.80;99.90
16158;DHT22;8184;60.256;18.694;2023-02-28T10:10:22;5.90;99.90
16158;DHT22;8184;60.256;18.694;2023-02-28T10:12:52;5.90;99.90
16158;DHT22;8184;60.256;18.694;2023-02-28T10:15:25;5.80;99.90
16158;DHT22;8184;60.256;18.694;2023-02-28T10:17:54;5.80;99.90
16158;DHT22;8184;60.256;18.694;2023-02-28T10:20:37;5.80;99.90
16158;DHT22;8184;60.256;18.694;2023-02-28T10:23:09;5.90;99.90
16158;DHT22;8184;60.256;18.694;2023-02-28T10:25:40;5.90;99.90
16158;DHT22;8184;60.256;18.694;2023-02-28T10:28:09;5.80;99.90
16158;DHT22;8184;60.256;18.694;2023-02-28T10:30:38;5.90;99.90
16158;DHT22;8184;60.256;18.694;2023-02-28T10:33:10;5.90;99.90
16158;DHT22;8184;60.256;18.694;2023-02-28T10:35:41;6.00;99.90
16158;DHT22;8184;60.256;18.694;2023-02-28T10:38:15;6.20;99.90
16158;DHT22;8184;60.256;18.694;2023-02-28T10:40:43;6.20;99.90
16158;DHT22;8184;60.256;18.694;2023-02-28T10:43:19;6.20;99.90
16158;DHT22;8184;60.256;18.694;2023-02-28T10:45:58;6.20;99.90
16158;DHT22;8184;60.256;18.694;2023-02-28T10:48:31;6.30;99.90
16158;DHT22;8184;60.256;18.694;2023-02-28T10:51:02;6.30;99.90
16158;DHT22;8184;60.256;18.694;2023-02-28T10:53:32;6.60;99.90
16158;DHT22;8184;60.256;18.694;2023-02-28T10:56:15;6.60;99.90
16158;DHT22;8184;60.256;18.694;2023-02-28T10:58:48;6.50;99.90
16158;DHT22;8184;60.256;18.694;2023-02-28T11:01:19;6.70;99.90
16158;DHT22;8184;60.256;18.694;2023-02-28T11:03:48;6.60;99.90
16158;DHT22;8184;60.256;18.694;2023-02-28T11:06:19;6.60;99.90
16158;DHT22;8184;60.256;18.694;2023-02-28T11:08:49;6.70;99.90
16158;DHT22;8184;60.256;18.694;2023-02-28T11:11:18;6.70;99.90
16158;DHT22;8184;60.256;18.694;2023-02-28T11:13:50;6.70;99.90
16158;DHT22;8184;60.256;18.694;2023-02-28T11:16:19;7.00;99.90
16158;DHT22;8184;60.256;18.694;2023-02-28T11:18:48;7.20;99.90
16158;DHT22;8184;60.256;18.694;2023-02-28T11:21:23;7.00;99.90
16158;DHT22;8184;60.256;18.694;2023-02-28T11:23:54;6.90;99.90
16158;DHT22;8184;60.256;18.694;2023-02-28T11:26:41;7.10;99.90
16158;DHT22;8184;60.256;18.694;2023-02-28T11:29:11;6.90;99.90
16158;DHT22;8184;60.256;18.694;2023-02-28T11:34:26;6.60;99.90
16158;DHT22;8184;60.256;18.694;2023-02-28T11:36:57;6.90;99.90
16158;DHT22;8184;60.256;18.694;2023-02-28T11:39:26;7.00;99.90
16158;DHT22;8184;60.256;18.694;2023-02-28T11:42:02;7.00;99.90
16158;DHT22;8184;60.256;18.694;2023-02-28T11:44:36;7.10;99.90
16158;DHT22;8184;60.256;18.694;2023-02-28T11:47:06;7.20;99.90
16158;DHT22;8184;60.256;18.694;2023-02-28T11:49:42;7.10;99.90
16158;DHT22;8184;60.256;18.694;2023-02-28T11:52:17;7.30;99.90
16158;DHT22;8184;60.256;18.694;2023-02-28T11:54:52;7.30;99.90
16158;DHT22;8184;60.256;18.694;2023-02-28T11:57:30;7.20;99.90
16158;DHT22;8184;60.256;18.694;2023-02-28T12:00:01;7.20;99.90
16158;DHT22;8184;60.256;18.694;2023-02-28T12:02:31;7.20;99.90
16158;DHT22;8184;60.256;18.694;2023-02-28T12:05:16;7.20;99.90
16158;DHT22;8184;60.256;18.694;2023-02-28T12:07:54;7.20;99.90
16158;DHT22;8184;60.256;18.694;2023-02-28T12:10:25;7.20;99.90
16158;DHT22;8184;60.256;18.694;2023-02-28T12:12:58;7.20;99.90
16158;DHT22;8184;60.256;18.694;2023-02-28T12:18:03;7.20;99.90
16158;DHT22;8184;60.256;18.694;2023-02-28T12:20:36;7.30;99.90
16158;DHT22;8184;60.256;18.694;2023-02-28T12:23:16;7.20;99.90
16158;DHT22;8184;60.256;18.694;2023-02-28T12:25:49;7.20;99.90
16158;DHT22;8184;60.256;18.694;2023-02-28T12:28:20;7.20;99.90
16158;DHT22;8184;60.256;18.694;2023-02-28T12:30:50;7.10;99.90
16158;DHT22;8184;60.256;18.694;2023-02-28T12:33:21;7.20;99.90
16158;DHT22;8184;60.256;18.694;2023-02-28T12:35:51;7.10;99.90
16158;DHT22;8184;60.256;18.694;2023-02-28T12:38:24;7.10;99.90
16158;DHT22;8184;60.256;18.694;2023-02-28T12:40:54;7.10;99.90
16158;DHT22;8184;60.256;18.694;2023-02-28T12:43:25;7.20;99.90
16158;DHT22;8184;60.256;18.694;2023-02-28T12:45:55;7.20;99.90
16158;DHT22;8184;60.256;18.694;2023-02-28T12:48:25;7.30;99.90
16158;DHT22;8184;60.256;18.694;2023-02-28T12:50:55;7.30;99.90
16158;DHT22;8184;60.256;18.694;2023-02-28T12:53:27;7.20;99.90
16158;DHT22;8184;60.256;18.694;2023-02-28T12:56:00;7.10;99.90
16158;DHT22;8184;60.256;18.694;2023-02-28T12:58:35;7.00;99.90
16158;DHT22;8184;60.256;18.694;2023-02-28T13:01:20;6.90;99.90
16158;DHT22;8184;60.256;18.694;2023-02-28T13:04:08;6.90;99.90
16158;DHT22;8184;60.256;18.694;2023-02-28T13:06:45;7.00;99.90
16158;DHT22;8184;60.256;18.694;2023-02-28T13:09:20;7.00;99.90
16158;DHT22;8184;60.256;18.694;2023-02-28T13:11:48;6.90;99.90
16158;DHT22;8184;60.256;18.694;2023-02-28T13:14:28;6.90;99.90
16158;DHT22;8184;60.256;18.694;2023-02-28T13:16:59;7.00;99.90
16158;DHT22;8184;60.256;18.694;2023-02-28T13:19:28;7.10;99.90
16158;DHT22;8184;60.256;18.694;2023-02-28T13:21:57;7.10;99.90
16158;DHT22;8184;60.256;18.694;2023-02-28T13:24:44;7.10;99.90
16158;DHT22;8184;60.256;18.694;2023-02-28T13:29:59;7.00;99.90
16158;DHT22;8184;60.256;18.694;2023-02-28T13:32:33;7.00;99.90
16158;DHT22;8184;60.256;18.694;2023-02-28T13:35:13;7.00;99.90
16158;DHT22;8184;60.256;18.694;2023-02-28T13:37:42;7.00;99.90
16158;DHT22;8184;60.256;18.694;2023-02-28T13:42:58;6.90;99.90
16158;DHT22;8184;60.256;18.694;2023-02-28T13:45:27;6.90;99.90
16158;DHT22;8184;60.256;18.694;2023-02-28T13:47:58;6.90;99.90
16158;DHT22;8184;60.256;18.694;2023-02-28T13:50:31;6.80;99.90
16158;DHT22;8184;60.256;18.694;2023-02-28T13:53:08;6.70;99.90
16158;DHT22;8184;60.256;18.694;2023-02-28T13:55:43;6.70;99.90
16158;DHT22;8184;60.256;18.694;2023-02-28T13:58:21;6.60;99.90
16158;DHT22;8184;60.256;18.694;2023-02-28T14:00:59;6.60;99.90
16158;DHT22;8184;60.256;18.694;2023-02-28T14:03:37;6.60;99.90
16158;DHT22;8184;60.256;18.694;2023-02-28T14:06:16;6.50;99.90
16158;DHT22;8184;60.256;18.694;2023-02-28T14:08:49;6.50;99.90
16158;DHT22;8184;60.256;18.694;2023-02-28T14:11:30;6.50;99.90
16158;DHT22;8184;60.256;18.694;2023-02-28T14:14:00;6.50;99.90
16158;DHT22;8184;60.256;18.694;2023-02-28T14:16:35;6.40;99.90
16158;DHT22;8184;60.256;18.694;2023-02-28T14:19:09;6.40;99.90
16158;DHT22;8184;60.256;18.694;2023-02-28T14:21:38;6.30;99.90
16158;DHT22;8184;60.256;18.694;2023-02-28T14:24:16;6.30;99.90
16158;DHT22;8184;60.256;18.694;2023-02-28T14:27:06;6.30;99.90
16158;DHT22;8184;60.256;18.694;2023-02-28T14:29:42;6.20;99.90
16158;DHT22;8184;60.256;18.694;2023-02-28T14:32:13;6.20;99.90
16158;DHT22;8184;60.256;18.694;2023-02-28T14:34:44;5.90;99.90
16158;DHT22;8184;60.256;18.694;2023-02-28T14:37:19;5.60;99.90
16158;DHT22;8184;60.256;18.694;2023-02-28T14:39:48;5.50;99.90
16158;DHT22;8184;60.256;18.694;2023-02-28T14:42:29;5.50;99.90
16158;DHT22;8184;60.256;18.694;2023-02-28T14:44:59;5.50;99.90
16158;DHT22;8184;60.256;18.694;2023-02-28T14:47:28;5.50;99.90
16158;DHT22;8184;60.256;18.694;2023-02-28T14:50:00;5.60;99.90
16158;DHT22;8184;60.256;18.694;2023-02-28T14:52:29;5.50;99.90
16158;DHT22;8184;60.256;18.694;2023-02-28T14:55:01;5.60;99.90
16158;DHT22;8184;60.256;18.694;2023-02-28T14:57:31;5.40;99.90
16158;DHT22;8184;60.256;18.694;2023-02-28T15:00:03;5.20;99.90
16158;DHT22;8184;60.256;18.694;2023-02-28T15:02:38;5.10;99.90
16158;DHT22;8184;60.256;18.694;2023-02-28T15:05:19;5.30;99.90
16158;DHT22;8184;60.256;18.694;2023-02-28T15:07:48;5.30;99.90
16158;DHT22;8184;60.256;18.694;2023-02-28T15:10:17;5.20;99.90
16158;DHT22;8184;60.256;18.694;2023-02-28T15:12:48;5.20;99.90
16158;DHT22;8184;60.256;18.694;2023-02-28T15:15:19;5.10;99.90
16158;DHT22;8184;60.256;18.694;2023-02-28T15:18:06;5.10;99.90
16158;DHT22;8184;60.256;18.694;2023-02-28T15:20:35;5.20;99.90
16158;DHT22;8184;60.256;18.694;2023-02-28T15:23:04;5.10;99.90
16158;DHT22;8184;60.256;18.694;2023-02-28T15:25:32;5.10;99.90
16158;DHT22;8184;60.256;18.694;2023-02-28T15:28:01;4.90;99.90
16158;DHT22;8184;60.256;18.694;2023-02-28T15:30:31;5.00;99.90
16158;DHT22;8184;60.256;18.694;2023-02-28T15:33:04;5.00;99.90
16158;DHT22;8184;60.256;18.694;2023-02-28T15:35:33;5.00;99.90
16158;DHT22;8184;60.256;18.694;2023-02-28T15:38:02;4.90;99.90
16158;DHT22;8184;60.256;18.694;2023-02-28T15:40:33;5.00;99.90
16158;DHT22;8184;60.256;18.694;2023-02-28T15:43:04;5.00;99.90
16158;DHT22;8184;60.256;18.694;2023-02-28T15:45:35;5.00;99.90
16158;DHT22;8184;60.256;18.694;2023-02-28T15:48:05;4.90;99.90
16158;DHT22;8184;60.256;18.694;2023-02-28T15:50:40;4.80;99.90
16158;DHT22;8184;60.256;18.694;2023-02-28T15:53:12;4.80;99.90
16158;DHT22;8184;60.256;18.694;2023-02-28T15:55:42;4.80;99.90
16158;DHT22;8184;60.256;18.694;2023-02-28T15:58:11;4.80;99.90
16158;DHT22;8184;60.256;18.694;2023-02-28T16:00:43;4.90;99.90
16158;DHT22;8184;60.256;18.694;2023-02-28T16:03:25;4.70;99.90
16158;DHT22;8184;60.256;18.694;2023-02-28T16:06:09;4.70;99.90
16158;DHT22;8184;60.256;18.694;2023-02-28T16:08:48;4.60;99.90
16158;DHT22;8184;60.256;18.694;2023-02-28T16:11:18;4.70;99.90
16158;DHT22;8184;60.256;18.694;2023-02-28T16:13:47;4.50;99.90
16158;DHT22;8184;60.256;18.694;2023-02-28T16:16:17;4.50;99.90
16158;DHT22;8184;60.256;18.694;2023-02-28T16:18:46;4.30;99.90
16158;DHT22;8184;60.256;18.694;2023-02-28T16:21:16;4.40;99.90
16158;DHT22;8184;60.256;18.694;2023-02-28T16:23:45;4.30;99.90
16158;DHT22;8184;60.256;18.694;2023-02-28T16:26:15;4.30;99.90
16158;DHT22;8184;60.256;18.694;2023-02-28T16:28:46;4.20;99.90
16158;DHT22;8184;60.256;18.694;2023-02-28T16:31:14;4.20;99.90
16158;DHT22;8184;60.256;18.694;2023-02-28T16:33:44;4.00;99.90